Troy Municipal Airport
KTOI : rendu visible

Aérodrome :











RETROUVEZ-NOUS SUR...

 
LOGIN :

S'inscrire | Disclaimer

   EN    FR    IT 

 









Légende :    VFR   VFR Marginal   IFR   IFR Intensif   IFR Très Intensif
Visi : 
Plafond : 
>= 8 km
>= 3000ft
5 à 8 km
1000 à 3000 ft
1500m à 5 km
500 à 1000 ft
800 à 1500m
200 à 500 ft
< 800m
< 200 ft
Symboles :   Orages  Brouillard  Fortes neiges  Fortes précipitations  Vent > 20 kt






- Altitude de l'aérodrome : 398 ft


KTOI - Troy Municipal

DERNIER METAR :
  • 121053Z AUTO 32016G21KT 10SM -RA BKN009 BKN013 OVC044 11/11 A3000 RMK AO2 PK WND 31035/1009 WSHFT 1002 PRESRR SLP156 P0008 T01060106

METARs EXPIRÉS :
  • 121036Z AUTO 33015KT 4SM -RA BR SCT007 BKN026 OVC034 11/11 A2997 RMK AO2 PK WND 31035/1009 WSHFT 1002 P0007 T01110111
  • 121026Z AUTO 32011G20KT 8SM -RA SCT007 BKN014 OVC030 12/12 A2997 RMK AO2 PK WND 31035/1009 WSHFT 1002 P0006 T01170117
  • 121002Z AUTO 29012G23KT 5SM -RA BR BKN006 OVC048 17/17 A2994 RMK AO2 PRESRR P0001 T01720172
  • 120953Z AUTO 23006KT 4SM RA BR BKN007 BKN044 OVC050 17/17 A2992 RMK AO2 SLP126 P0020 T01720172
  • 120853Z AUTO 20007KT 4SM RA BR FEW075 BKN095 OVC110 17/17 A2992 RMK AO2 RAB15 SLP129 P0007 60007 T01670167 56019

TAF KTOI
Valide du 12 à 06h jusqu'au 13 à 06h UTC


120540Z 1206/1306 VRB04KT P6SM VCSH SCT060 OVC070
FM120900 22010KT 6SM BR OVC045
TEMPO 1209/1210 31010G18KT 4SM SHRA OVC025
FM121000 32013G23KT 5SM BR VCSH OVC014
TEMPO 1210/1214 2SM SHRA OVC009
FM121600 34019G30KT P6SM VCSH OVC015
FM121700 34018G29KT P6SM BKN040
FM130000 34013G20KT P6SM SKC



MET'MAP, la Météo Aéronautique d'un coup d'oeil ! - Copyright ORBIFLY Décembre 2007 - Disclaimer

ORBIFLY MET'MAP TEAM :

Programmation & Développement : Alexandra Zaïnal
Conception & Développement : Baudouin d'Aumeries
Co-Programmation & Développement : Marc-Olivier Méhu
Soutien technique & logistique : Manuel Goepfert

Contact : metmap@orbifly.com




SOURCES & CREDITS :

   NOAA       Earth
Advisory